createdAt,value
2022-11-05T00:02:15.747Z,99247.16
2022-11-05T00:05:00.907Z,99244.81
2022-11-05T00:07:58.229Z,99247.66
2022-11-05T00:10:27.876Z,99253.56
2022-11-05T00:13:14.125Z,99252.88
2022-11-05T00:15:59.677Z,99256.56
2022-11-05T00:18:27.242Z,99260.59
2022-11-05T00:20:54.549Z,99261.25
2022-11-05T00:23:40.505Z,99257.56
2022-11-05T00:26:09.417Z,99265.78
2022-11-05T00:28:36.944Z,99269.13
2022-11-05T00:31:06.251Z,99260.91
2022-11-05T00:33:33.305Z,99265.91
2022-11-05T00:36:02.423Z,99267.13
2022-11-05T00:38:30.391Z,99270.97
2022-11-05T00:40:57.061Z,99268.81
2022-11-05T00:43:42.851Z,99277.03
2022-11-05T00:46:09.722Z,99280.41
2022-11-05T00:48:54.780Z,99277.34
2022-11-05T00:51:21.437Z,99281.41
2022-11-05T00:53:48.146Z,99287.94
2022-11-05T00:56:14.711Z,99286.25
2022-11-05T00:58:41.230Z,99290.81
2022-11-05T01:01:07.699Z,99291.50
2022-11-05T01:03:36.184Z,99286.59
2022-11-05T01:06:14.050Z,99294.81
2022-11-05T01:08:42.784Z,99303.91
2022-11-05T01:11:32.991Z,99302.56
2022-11-05T01:14:01.681Z,99302.19
2022-11-05T01:16:28.240Z,99299.03
2022-11-05T01:18:54.705Z,99300.88
2022-11-05T01:21:21.301Z,99307.59
2022-11-05T01:23:47.948Z,99298.22
2022-11-05T01:26:14.618Z,99301.06
2022-11-05T01:28:41.175Z,99307.28
2022-11-05T01:31:07.709Z,99315.34
2022-11-05T01:33:34.198Z,99316.00
2022-11-05T01:36:00.767Z,99328.28
2022-11-05T01:38:27.496Z,99323.91
2022-11-05T01:40:54.043Z,99335.50
2022-11-05T01:43:22.684Z,99335.16
2022-11-05T01:45:55.213Z,99337.81
2022-11-05T01:48:25.856Z,99346.06
2022-11-05T01:51:06.523Z,99350.72
2022-11-05T01:53:43.715Z,99355.09
2022-11-05T01:56:32.488Z,99361.47
2022-11-05T01:59:02.144Z,99369.34
2022-11-05T02:01:29.164Z,99372.69
2022-11-05T02:03:59.635Z,99374.03
2022-11-05T02:06:27.866Z,99371.19
2022-11-05T02:09:23.828Z,99369.69
2022-11-05T02:11:51.299Z,99370.16
2022-11-05T02:14:18.476Z,99370.34
2022-11-05T02:17:08.509Z,99370.34
2022-11-05T02:19:38.143Z,99358.78
2022-11-05T02:22:51.101Z,99364.16
2022-11-05T02:25:20.804Z,99366.66
2022-11-05T02:28:12.274Z,99375.41
2022-11-05T02:30:44.832Z,99380.09
2022-11-05T02:33:35.301Z,99390.69
2022-11-05T02:36:27.024Z,99394.84
2022-11-05T02:39:08.527Z,99394.38
2022-11-05T02:42:00.641Z,99395.88
2022-11-05T02:44:41.757Z,99393.88
2022-11-05T02:47:20.293Z,99392.88
2022-11-05T02:49:54.303Z,99401.31
2022-11-05T02:52:39.159Z,99394.56
2022-11-05T02:55:14.309Z,99398.72
2022-11-05T02:57:44.934Z,99408.00
2022-11-05T03:00:39.632Z,99406.47
2022-11-05T03:03:12.138Z,99411.84
2022-11-05T03:06:07.301Z,99413.31
2022-11-05T03:08:44.833Z,99430.97
2022-11-05T03:11:16.753Z,99430.13
2022-11-05T03:13:52.520Z,99439.38
2022-11-05T03:16:26.192Z,99431.50
2022-11-05T03:19:11.684Z,99436.00
2022-11-05T03:21:46.513Z,99450.81
2022-11-05T03:24:21.461Z,99439.22
2022-11-05T03:26:55.498Z,99443.91
2022-11-05T03:29:29.158Z,99451.50
2022-11-05T03:31:57.604Z,99452.19
2022-11-05T03:34:30.590Z,99455.66
2022-11-05T03:36:57.622Z,99451.66
2022-11-05T03:39:30.424Z,99450.34
2022-11-05T03:41:57.928Z,99449.03
2022-11-05T03:44:29.570Z,99452.38
2022-11-05T03:47:06.890Z,99454.03
2022-11-05T03:49:39.306Z,99452.81
2022-11-05T03:52:20.083Z,99465.09
2022-11-05T03:54:46.797Z,99463.22
2022-11-05T03:57:19.573Z,99466.78
2022-11-05T03:59:48.522Z,99475.69
2022-11-05T04:02:18.193Z,99478.16
2022-11-05T04:04:44.775Z,99483.88
2022-11-05T04:07:30.556Z,99486.41
2022-11-05T04:10:15.765Z,99491.78
2022-11-05T04:13:00.884Z,99484.56
2022-11-05T04:15:29.585Z,99501.00
2022-11-05T04:17:58.782Z,99502.31
2022-11-05T04:20:45.123Z,99507.06
2022-11-05T04:23:30.453Z,99515.75
2022-11-05T04:25:56.905Z,99523.47
2022-11-05T04:28:43.362Z,99520.47
2022-11-05T04:31:09.867Z,99526.41
2022-11-05T04:33:36.405Z,99536.63
2022-11-05T04:36:02.939Z,99541.44
2022-11-05T04:38:29.458Z,99525.16
2022-11-05T04:41:12.501Z,99540.44
2022-11-05T04:43:39.005Z,99540.28
2022-11-05T04:46:05.677Z,99543.97
2022-11-05T04:48:32.175Z,99552.84
2022-11-05T04:50:58.670Z,99546.63
2022-11-05T04:53:25.136Z,99554.31
2022-11-05T04:55:51.653Z,99548.25
2022-11-05T04:58:18.536Z,99552.63
2022-11-05T05:00:45.074Z,99556.00
2022-11-05T05:03:11.789Z,99552.31
2022-11-05T05:05:38.520Z,99553.47
2022-11-05T05:08:05.523Z,99555.03
2022-11-05T05:10:32.729Z,99554.63
2022-11-05T05:12:59.229Z,99555.63
2022-11-05T05:15:25.688Z,99560.00
2022-11-05T05:17:52.732Z,99569.00
2022-11-05T05:20:38.545Z,99565.00
2022-11-05T05:23:05.247Z,99565.38
2022-11-05T05:25:31.697Z,99561.63
2022-11-05T05:27:58.640Z,99571.63
2022-11-05T05:30:25.510Z,99580.69
2022-11-05T05:32:52.127Z,99592.72
2022-11-05T05:35:18.648Z,99598.09
2022-11-05T05:37:45.499Z,99602.25
2022-11-05T05:40:11.947Z,99597.72
2022-11-05T05:42:42.916Z,99607.59
2022-11-05T05:45:10.895Z,99602.25
2022-11-05T05:47:37.345Z,99605.22
2022-11-05T05:50:04.297Z,99606.56
2022-11-05T05:52:30.756Z,99604.38
2022-11-05T05:54:57.203Z,99617.16
2022-11-05T05:57:23.679Z,99618.00
2022-11-05T05:59:50.158Z,99619.66
2022-11-05T06:02:16.747Z,99623.88
2022-11-05T06:04:43.306Z,99628.94
2022-11-05T06:07:09.842Z,99634.84
2022-11-05T06:09:36.313Z,99636.06
2022-11-05T06:12:02.955Z,99632.00
2022-11-05T06:14:29.454Z,99628.63
2022-11-05T06:16:55.960Z,99625.41
2022-11-05T06:19:22.425Z,99626.78
2022-11-05T06:21:48.842Z,99628.84
2022-11-05T06:24:15.416Z,99635.16
2022-11-05T06:26:43.252Z,99632.59
2022-11-05T06:29:10.528Z,99641.59
2022-11-05T06:31:37.035Z,99643.44
2022-11-05T06:34:03.585Z,99656.84
2022-11-05T06:36:30.046Z,99661.47
2022-11-05T06:38:56.699Z,99661.75
2022-11-05T06:41:23.298Z,99674.03
2022-11-05T06:43:49.764Z,99677.94
2022-11-05T06:46:16.270Z,99687.22
2022-11-05T06:48:42.793Z,99691.28
2022-11-05T06:51:09.600Z,99691.97
2022-11-05T06:53:36.183Z,99693.66
2022-11-05T06:56:06.841Z,99692.56
2022-11-05T06:58:33.982Z,99698.72
2022-11-05T07:01:05.488Z,99705.16
2022-11-05T07:03:31.989Z,99708.22
2022-11-05T07:06:02.309Z,99714.88
2022-11-05T07:08:33.476Z,99721.09
2022-11-05T07:11:00.416Z,99725.22
2022-11-05T07:13:27.218Z,99728.50
2022-11-05T07:15:53.737Z,99734.97
2022-11-05T07:18:20.267Z,99738.44
2022-11-05T07:20:46.815Z,99747.94
2022-11-05T07:23:14.583Z,99756.19
2022-11-05T07:25:42.437Z,99759.53
2022-11-05T07:28:10.011Z,99781.69
2022-11-05T07:30:36.989Z,99788.16
2022-11-05T07:33:03.986Z,99789.38
2022-11-05T07:35:30.564Z,99795.75
2022-11-05T07:37:57.047Z,99793.59
2022-11-05T07:40:25.454Z,99804.00
2022-11-05T07:42:56.840Z,99810.16
2022-11-05T07:45:25.285Z,99813.84
2022-11-05T07:47:54.581Z,99806.03
2022-11-05T07:50:22.671Z,99811.84
2022-11-05T07:52:49.882Z,99816.47
2022-11-05T07:55:18.196Z,99819.75
2022-11-05T07:57:47.006Z,99820.72
2022-11-05T08:00:16.194Z,99829.09
2022-11-05T08:02:43.419Z,99834.63
2022-11-05T08:05:10.481Z,99838.00
2022-11-05T08:07:37.006Z,99842.50
2022-11-05T08:10:04.280Z,99842.81
2022-11-05T08:12:32.193Z,99844.94
2022-11-05T08:14:58.817Z,99850.31
2022-11-05T08:17:25.575Z,99855.06
2022-11-05T08:19:52.083Z,99856.56
2022-11-05T08:22:18.616Z,99856.41
2022-11-05T08:24:45.065Z,99864.00
2022-11-05T08:27:11.550Z,99880.50
2022-11-05T08:29:38.017Z,99885.03
2022-11-05T08:32:04.577Z,99887.59
2022-11-05T08:34:31.056Z,99887.69
2022-11-05T08:37:00.787Z,99908.63
2022-11-05T08:39:27.441Z,99912.22
2022-11-05T08:41:53.918Z,99918.53
2022-11-05T08:44:20.423Z,99916.41
2022-11-05T08:46:46.867Z,99925.03
2022-11-05T08:49:13.388Z,99923.84
2022-11-05T08:51:39.953Z,99925.03
2022-11-05T08:54:06.652Z,99931.28
2022-11-05T08:56:33.137Z,99932.44
2022-11-05T08:59:00.833Z,99927.03
2022-11-05T09:01:27.502Z,99934.63
2022-11-05T09:03:54.158Z,99932.25
2022-11-05T09:06:20.731Z,99942.09
2022-11-05T09:08:47.359Z,99939.94
2022-11-05T09:11:14.265Z,99933.09
2022-11-05T09:13:40.963Z,99942.91
2022-11-05T09:16:15.588Z,99951.75
2022-11-05T09:18:42.367Z,99954.25
2022-11-05T09:21:08.856Z,99959.94
2022-11-05T09:23:35.358Z,99966.41
2022-11-05T09:26:02.115Z,99970.78
2022-11-05T09:28:28.723Z,99957.53
2022-11-05T09:30:55.226Z,99965.84
2022-11-05T09:33:24.067Z,99972.22
2022-11-05T09:35:51.713Z,99969.72
2022-11-05T09:38:18.452Z,99976.97
2022-11-05T09:40:56.038Z,99970.91
2022-11-05T09:43:31.263Z,99980.19
2022-11-05T09:45:59.846Z,99978.66
2022-11-05T09:48:29.239Z,99978.91
2022-11-05T09:50:56.045Z,99980.63
2022-11-05T09:53:23.480Z,99987.44
2022-11-05T09:55:54.409Z,99977.78
2022-11-05T09:58:29.029Z,99983.91
2022-11-05T10:00:57.027Z,99984.69
2022-11-05T10:03:24.968Z,99984.66
2022-11-05T10:05:52.346Z,99990.59
2022-11-05T10:08:22.659Z,99986.44
2022-11-05T10:10:51.703Z,99986.00
2022-11-05T10:13:18.159Z,99990.38
2022-11-05T10:16:01.134Z,99994.34
2022-11-05T10:18:38.494Z,99999.88
2022-11-05T10:21:05.778Z,99996.63
2022-11-05T10:23:33.197Z,100002.19
2022-11-05T10:26:03.116Z,100008.44
2022-11-05T10:28:32.133Z,100019.97
2022-11-05T10:31:01.469Z,100012.22
2022-11-05T10:33:31.099Z,100024.84
2022-11-05T10:36:01.801Z,100017.66
2022-11-05T10:38:28.281Z,100021.16
2022-11-05T10:40:57.825Z,100027.09
2022-11-05T10:43:45.630Z,100013.44
2022-11-05T10:46:14.914Z,100013.09
2022-11-05T10:48:53.014Z,100013.44
2022-11-05T10:51:19.557Z,100015.25
2022-11-05T10:53:56.044Z,100014.06
2022-11-05T10:56:35.671Z,100005.56
2022-11-05T10:59:06.738Z,100010.78
2022-11-05T11:01:36.428Z,100013.97
2022-11-05T11:04:20.521Z,100017.97
2022-11-05T11:06:49.689Z,100014.31
2022-11-05T11:09:22.762Z,100018.28
2022-11-05T11:11:56.808Z,100027.00
2022-11-05T11:14:23.311Z,100027.38
2022-11-05T11:16:51.672Z,100022.16
2022-11-05T11:19:21.343Z,100026.09
2022-11-05T11:22:07.779Z,100029.78
2022-11-05T11:24:39.344Z,100040.59
2022-11-05T11:27:10.007Z,100047.50
2022-11-05T11:29:42.893Z,100047.50
2022-11-05T11:32:18.706Z,100041.16
2022-11-05T11:34:46.774Z,100040.22
2022-11-05T11:37:28.665Z,100042.66
2022-11-05T11:39:58.156Z,100045.63
2022-11-05T11:42:33.426Z,100039.91
2022-11-05T11:45:06.470Z,100045.88
2022-11-05T11:47:33.406Z,100045.72
2022-11-05T11:50:01.398Z,100040.75
2022-11-05T11:52:33.585Z,100032.44
2022-11-05T11:55:09.232Z,100034.16
2022-11-05T11:57:43.893Z,100039.56
2022-11-05T12:00:11.588Z,100031.31
2022-11-05T12:02:50.418Z,100025.47
2022-11-05T12:05:34.149Z,100029.56
2022-11-05T12:08:30.076Z,100035.66
2022-11-05T12:11:18.178Z,100033.78
2022-11-05T12:13:55.823Z,100032.47
2022-11-05T12:16:29.928Z,100030.66
2022-11-05T12:19:15.050Z,100037.88
2022-11-05T12:22:12.975Z,100038.53
2022-11-05T12:25:02.232Z,100041.94
2022-11-05T12:27:38.809Z,100043.97
2022-11-05T12:30:11.637Z,100045.94
2022-11-05T12:32:57.063Z,100052.72
2022-11-05T12:35:58.208Z,100053.19
2022-11-05T12:38:36.571Z,100060.88
2022-11-05T12:41:48.182Z,100056.22
2022-11-05T12:44:23.697Z,100053.00
2022-11-05T12:46:55.934Z,100064.72
2022-11-05T12:49:53.440Z,100064.50
2022-11-05T12:52:23.303Z,100061.38
2022-11-05T12:55:04.993Z,100066.06
2022-11-05T12:57:33.162Z,100071.81
2022-11-05T13:00:29.255Z,100061.53
2022-11-05T13:03:01.652Z,100056.13
2022-11-05T13:05:45.650Z,100052.94
2022-11-05T13:08:33.038Z,100058.72
2022-11-05T13:11:19.588Z,100063.78
2022-11-05T13:13:53.430Z,100061.81
2022-11-05T13:16:33.570Z,100060.34
2022-11-05T13:19:22.986Z,100063.75
2022-11-05T13:21:54.905Z,100062.19
2022-11-05T13:24:27.348Z,100059.75
2022-11-05T13:26:55.203Z,100069.13
2022-11-05T13:29:53.171Z,100065.66
2022-11-05T13:32:32.210Z,100065.41
2022-11-05T13:34:59.582Z,100073.22
2022-11-05T13:37:46.940Z,100077.44
2022-11-05T13:40:16.268Z,100083.31
2022-11-05T13:42:58.811Z,100089.00
2022-11-05T13:45:42.389Z,100090.75
2022-11-05T13:48:22.899Z,100093.69
2022-11-05T13:51:14.114Z,100098.38
2022-11-05T13:54:03.739Z,100097.81
2022-11-05T13:57:19.453Z,100102.97
2022-11-05T13:59:55.250Z,100100.59
2022-11-05T14:02:56.687Z,100096.25
2022-11-05T14:05:43.369Z,100104.16
2022-11-05T14:08:20.137Z,100110.41
2022-11-05T14:11:25.312Z,100111.88
2022-11-05T14:13:56.921Z,100115.56
2022-11-05T14:16:26.577Z,100109.31
2022-11-05T14:18:56.292Z,100112.66
2022-11-05T14:21:25.479Z,100107.69
2022-11-05T14:23:57.253Z,100108.53
2022-11-05T14:26:26.154Z,100111.09
2022-11-05T14:28:58.568Z,100111.53
2022-11-05T14:34:56.560Z,100120.75
2022-11-05T14:37:25.568Z,100114.47
2022-11-05T14:39:53.634Z,100111.94
2022-11-05T14:42:24.882Z,100105.16
2022-11-05T14:45:30.935Z,100114.28
2022-11-05T14:48:00.273Z,100121.06
2022-11-05T14:50:39.693Z,100117.69
2022-11-05T14:53:36.583Z,100115.84
2022-11-05T14:56:11.083Z,100121.16
2022-11-05T14:58:39.851Z,100130.91
2022-11-05T15:01:08.250Z,100130.31
2022-11-05T15:03:46.695Z,100130.75
2022-11-05T15:06:29.094Z,100133.22
2022-11-05T15:08:57.512Z,100136.50
2022-11-05T15:11:35.839Z,100143.31
2022-11-05T15:14:06.456Z,100144.41
2022-11-05T15:16:32.892Z,100143.53
2022-11-05T15:19:00.018Z,100142.53
2022-11-05T15:21:27.973Z,100141.06
2022-11-05T15:23:58.875Z,100148.78
2022-11-05T15:26:46.223Z,100147.94
2022-11-05T15:29:16.774Z,100155.09
2022-11-05T15:31:45.315Z,100147.22
2022-11-05T15:34:28.889Z,100146.59
2022-11-05T15:37:04.216Z,100146.03
2022-11-05T15:39:45.207Z,100141.03
2022-11-05T15:42:14.110Z,100152.63
2022-11-05T15:44:45.929Z,100143.63
2022-11-05T15:47:19.386Z,100150.03
2022-11-05T15:49:48.629Z,100141.44
2022-11-05T15:52:18.275Z,100146.81
2022-11-05T15:54:44.794Z,100139.75
2022-11-05T15:57:19.528Z,100138.94
2022-11-05T15:59:46.867Z,100142.91
2022-11-05T16:02:13.465Z,100140.78
2022-11-05T16:04:40.214Z,100137.69
2022-11-05T16:07:08.299Z,100131.31
2022-11-05T16:09:37.104Z,100142.91
2022-11-05T16:12:19.437Z,100155.47
2022-11-05T16:15:08.016Z,100151.09
2022-11-05T16:17:37.566Z,100153.88
2022-11-05T16:20:38.703Z,100150.22
2022-11-05T16:23:08.346Z,100143.69
2022-11-05T16:25:38.934Z,100144.69
2022-11-05T16:28:27.147Z,100146.16
2022-11-05T16:30:55.719Z,100151.50
2022-11-05T16:33:22.714Z,100154.34
2022-11-05T16:35:49.724Z,100155.78
2022-11-05T16:38:17.099Z,100159.44
2022-11-05T16:40:43.885Z,100156.16
2022-11-05T16:43:21.695Z,100158.00
2022-11-05T16:45:48.346Z,100165.69
2022-11-05T16:48:16.222Z,100166.91
2022-11-05T16:50:43.225Z,100165.94
2022-11-05T16:53:09.984Z,100165.47
2022-11-05T16:55:38.367Z,100165.25
2022-11-05T16:58:05.451Z,100162.28
2022-11-05T17:00:32.001Z,100161.81
2022-11-05T17:02:58.671Z,100165.88
2022-11-05T17:05:30.353Z,100170.75
2022-11-05T17:07:57.305Z,100169.59
2022-11-05T17:10:25.399Z,100171.28
2022-11-05T17:12:52.520Z,100172.78
2022-11-05T17:15:20.353Z,100172.06
2022-11-05T17:17:47.106Z,100177.41
2022-11-05T17:20:27.388Z,100184.66
2022-11-05T17:22:54.770Z,100182.34
2022-11-05T17:25:21.255Z,100186.84
2022-11-05T17:27:47.694Z,100188.19
2022-11-05T17:30:14.203Z,100188.97
2022-11-05T17:32:40.795Z,100187.78
2022-11-05T17:35:07.871Z,100181.94
2022-11-05T17:37:34.627Z,100188.50
2022-11-05T17:40:01.466Z,100187.53
2022-11-05T17:42:27.928Z,100195.06
2022-11-05T17:44:54.385Z,100195.72
2022-11-05T17:47:20.903Z,100190.63
2022-11-05T17:49:47.354Z,100188.09
2022-11-05T17:52:14.028Z,100195.88
2022-11-05T17:54:40.470Z,100200.72
2022-11-05T17:57:06.973Z,100200.13
2022-11-05T17:59:33.408Z,100203.88
2022-11-05T18:02:00.049Z,100206.81
2022-11-05T18:04:26.816Z,100209.50
2022-11-05T18:06:53.426Z,100211.19
2022-11-05T18:09:19.842Z,100217.25
2022-11-05T18:11:46.382Z,100223.09
2022-11-05T18:14:12.918Z,100219.94
2022-11-05T18:16:39.397Z,100220.78
2022-11-05T18:19:05.978Z,100222.09
2022-11-05T18:21:32.584Z,100220.91
2022-11-05T18:24:02.759Z,100228.41
2022-11-05T18:26:29.183Z,100221.84
2022-11-05T18:28:55.759Z,100230.31
2022-11-05T18:31:22.314Z,100226.06
2022-11-05T18:33:49.916Z,100229.84
2022-11-05T18:36:24.891Z,100233.50
2022-11-05T18:38:51.768Z,100233.94
2022-11-05T18:41:19.318Z,100233.94
2022-11-05T18:43:46.129Z,100238.84
2022-11-05T18:46:29.370Z,100237.13
2022-11-05T18:48:59.883Z,100236.91
2022-11-05T18:51:26.676Z,100240.16
2022-11-05T18:53:54.400Z,100232.25
2022-11-05T18:56:21.163Z,100237.75
2022-11-05T18:58:47.704Z,100237.13
2022-11-05T19:01:15.500Z,100237.59
2022-11-05T19:03:42.287Z,100228.16
2022-11-05T19:06:08.795Z,100243.44
2022-11-05T19:08:35.349Z,100232.13
2022-11-05T19:11:08.491Z,100236.13
2022-11-05T19:13:35.035Z,100228.22
2022-11-05T19:16:01.646Z,100233.94
2022-11-05T19:18:28.206Z,100234.41
2022-11-05T19:20:54.621Z,100238.63
2022-11-05T19:23:21.137Z,100234.59
2022-11-05T19:25:47.720Z,100238.56
2022-11-05T19:28:15.195Z,100238.69
2022-11-05T19:30:42.004Z,100238.69
2022-11-05T19:33:08.698Z,100239.53
2022-11-05T19:35:41.321Z,100236.03
2022-11-05T19:38:08.092Z,100245.84
2022-11-05T19:40:37.022Z,100243.66
2022-11-05T19:43:03.472Z,100253.47
2022-11-05T19:45:44.246Z,100250.19
2022-11-05T19:48:17.831Z,100252.00
2022-11-05T19:50:45.743Z,100254.91
2022-11-05T19:53:12.287Z,100257.22
2022-11-05T19:55:40.540Z,100260.13
2022-11-05T19:58:08.066Z,100256.41
2022-11-05T20:00:35.209Z,100254.06
2022-11-05T20:03:02.218Z,100260.03
2022-11-05T20:05:28.817Z,100260.38
2022-11-05T20:07:56.068Z,100270.19
2022-11-05T20:10:22.600Z,100265.47
2022-11-05T20:12:49.223Z,100260.88
2022-11-05T20:15:15.836Z,100254.06
2022-11-05T20:17:42.321Z,100256.06
2022-11-05T20:20:09.298Z,100261.78
2022-11-05T20:22:35.860Z,100260.09
2022-11-05T20:25:02.397Z,100274.19
2022-11-05T20:27:29.114Z,100275.47
2022-11-05T20:29:55.741Z,100272.06
2022-11-05T20:32:22.234Z,100279.75
2022-11-05T20:34:48.733Z,100286.72
2022-11-05T20:37:15.250Z,100281.38
2022-11-05T20:39:41.856Z,100280.66
2022-11-05T20:42:08.273Z,100293.63
2022-11-05T20:44:34.679Z,100291.31
2022-11-05T20:47:01.339Z,100289.13
2022-11-05T20:49:27.860Z,100296.09
2022-11-05T20:51:54.587Z,100290.63
2022-11-05T20:54:21.398Z,100293.00
2022-11-05T20:56:47.946Z,100293.63
2022-11-05T20:59:14.378Z,100296.31
2022-11-05T21:01:40.991Z,100290.41
2022-11-05T21:04:07.708Z,100280.06
2022-11-05T21:06:34.987Z,100277.53
2022-11-05T21:09:02.148Z,100281.34
2022-11-05T21:11:28.841Z,100280.31
2022-11-05T21:13:55.405Z,100271.78
2022-11-05T21:16:21.999Z,100270.50
2022-11-05T21:18:48.514Z,100268.78
2022-11-05T21:21:17.906Z,100274.72
2022-11-05T21:23:44.433Z,100277.59
2022-11-05T21:26:13.414Z,100272.50
2022-11-05T21:28:41.641Z,100282.13
2022-11-05T21:31:08.795Z,100285.47
2022-11-05T21:33:35.704Z,100284.09
2022-11-05T21:36:10.914Z,100290.59
2022-11-05T21:38:38.015Z,100288.16
2022-11-05T21:41:05.461Z,100294.56
2022-11-05T21:43:32.418Z,100298.13
2022-11-05T21:46:03.102Z,100293.97
2022-11-05T21:48:30.205Z,100304.41
2022-11-05T21:51:15.473Z,100298.44
2022-11-05T21:54:00.512Z,100305.47
2022-11-05T21:56:45.830Z,100294.28
2022-11-05T21:59:36.660Z,100294.16
2022-11-05T22:02:03.744Z,100294.50
2022-11-05T22:04:35.237Z,100288.72
2022-11-05T22:07:01.923Z,100283.69
2022-11-05T22:09:28.901Z,100294.91
2022-11-05T22:11:55.601Z,100288.84
2022-11-05T22:14:22.454Z,100287.13
2022-11-05T22:16:49.003Z,100285.69
2022-11-05T22:19:15.721Z,100281.09
2022-11-05T22:21:42.222Z,100279.91
2022-11-05T22:24:09.070Z,100281.72
2022-11-05T22:26:36.674Z,100279.06
2022-11-05T22:29:03.669Z,100275.66
2022-11-05T22:31:35.668Z,100268.41
2022-11-05T22:34:03.140Z,100274.41
2022-11-05T22:36:29.627Z,100275.38
2022-11-05T22:38:56.058Z,100280.78
2022-11-05T22:41:22.564Z,100270.34
2022-11-05T22:43:49.526Z,100275.69
2022-11-05T22:46:19.581Z,100262.28
2022-11-05T22:48:46.506Z,100272.28
2022-11-05T22:51:16.034Z,100278.03
2022-11-05T22:53:43.262Z,100275.34
2022-11-05T22:56:12.229Z,100263.41
2022-11-05T22:58:38.791Z,100271.81
2022-11-05T23:01:06.663Z,100273.31
2022-11-05T23:03:33.702Z,100268.00
2022-11-05T23:06:05.731Z,100271.00
2022-11-05T23:08:50.960Z,100268.94
2022-11-05T23:11:35.403Z,100275.44
2022-11-05T23:14:02.753Z,100271.72
2022-11-05T23:17:04.650Z,100273.84
2022-11-05T23:19:50.040Z,100271.09
2022-11-05T23:22:38.065Z,100276.31
2022-11-05T23:25:06.261Z,100279.69
2022-11-05T23:27:36.010Z,100278.94
2022-11-05T23:30:06.867Z,100273.50
2022-11-05T23:32:33.782Z,100261.06
2022-11-05T23:35:00.188Z,100266.94
2022-11-05T23:37:48.518Z,100263.56
2022-11-05T23:40:21.273Z,100261.72
2022-11-05T23:43:07.000Z,100261.84
2022-11-05T23:45:52.633Z,100264.56
2022-11-05T23:48:23.668Z,100266.31
2022-11-05T23:50:55.821Z,100271.63
2022-11-05T23:53:22.942Z,100270.25
2022-11-05T23:55:49.500Z,100275.66
2022-11-05T23:58:16.813Z,100273.44
